PWSweather.com
Personal Weather Stations
Station Observations
RW002
Arlington, VA 22207

Arlington, VA 22207

Lat: 38.8955, Lon: -77.1443

Elevation: 390

Station Type: Davis Vantage Pro II

jp_angelone@msn.com

High Low Average
Temperature 58.5°F14.7°C 28.7°F-1.8°C 42.3°F5.7°C
Dew Point 49.5°F9.7°C 14.2°F-9.9°C 30.8°F-0.7°C
Winds 18.0 mph 29.0 kmh Calm Calm 4.0 mph W6.4 kmh W
Wind Gusts 23.0 mph37.0 kmh -- 12.0 mph19.3 kmh
Humidity 92% 51% 64%
Pressure 30.25 in1024.4 mb 29.70 in1005.8 mb -
Precipitation 0.00 in0.0 mm - -
Hour Temp Dew Point Humidity Winds Wind Gusts Pressure Precip Precip Rate Daily Precip Total
12:04 AM 58.5°F14.7°C 43.3°F6.3°C 57% 1.0 mph SSW1.6 kmh SSW 8.0 mph12.9 kmh 29.77 in1008.1 mb 0.00 in0.0 mm 0.00 in0.0 mm 0.00 in0.0 mm
12:09 AM 58.4°F14.7°C 43.2°F6.2°C 57% 1.0 mph SSE1.6 kmh SSE 8.0 mph12.9 kmh 29.77 in1008.1 mb 0.00 in0.0 mm 0.00 in0.0 mm 0.00 in0.0 mm
12:14 AM 58.4°F14.7°C 43.2°F6.2°C 57% 1.0 mph S1.6 kmh S 8.0 mph12.9 kmh 29.76 in1007.8 mb 0.00 in0.0 mm 0.00 in0.0 mm 0.00 in0.0 mm
12:19 AM 58.4°F14.7°C 43.2°F6.2°C 57% Calm Calm 5.0 mph8.0 kmh 29.76 in1007.8 mb 0.00 in0.0 mm 0.00 in0.0 mm 0.00 in0.0 mm
12:24 AM 58.4°F14.7°C 43.2°F6.2°C 57% 1.0 mph S1.6 kmh S 6.0 mph9.7 kmh 29.75 in1007.5 mb 0.00 in0.0 mm 0.00 in0.0 mm 0.00 in0.0 mm
12:29 AM 58.3°F14.6°C 43.1°F6.2°C 57% Calm Calm -- 29.75 in1007.5 mb 0.00 in0.0 mm 0.00 in0.0 mm 0.00 in0.0 mm
12:34 AM 58.3°F14.6°C 43.1°F6.2°C 57% Calm Calm 5.0 mph8.0 kmh 29.75 in1007.5 mb 0.00 in0.0 mm 0.00 in0.0 mm 0.00 in0.0 mm
12:39 AM 58.2°F14.6°C 43.0°F6.1°C 57% Calm Calm 5.0 mph8.0 kmh 29.75 in1007.5 mb 0.00 in0.0 mm 0.00 in0.0 mm 0.00 in0.0 mm
12:44 AM 58.2°F14.6°C 43.0°F6.1°C 57% Calm Calm 3.0 mph4.8 kmh 29.75 in1007.5 mb 0.00 in0.0 mm 0.00 in0.0 mm 0.00 in0.0 mm
12:49 AM 58.2°F14.6°C 43.0°F6.1°C 57% 3.0 mph S4.8 kmh S 4.0 mph6.4 kmh 29.75 in1007.5 mb 0.00 in0.0 mm 0.00 in0.0 mm 0.00 in0.0 mm
12:54 AM 58.2°F14.6°C 43.5°F6.4°C 58% Calm Calm 4.0 mph6.4 kmh 29.75 in1007.5 mb 0.00 in0.0 mm 0.00 in0.0 mm 0.00 in0.0 mm
12:59 AM 58.3°F14.6°C 43.6°F6.4°C 58% Calm Calm -- 29.74 in1007.1 mb 0.00 in0.0 mm 0.00 in0.0 mm 0.00 in0.0 mm
01:04 AM 58.2°F14.6°C 43.0°F6.1°C 57% Calm Calm -- 29.72 in1006.4 mb 0.00 in0.0 mm 0.00 in0.0 mm 0.00 in0.0 mm
01:09 AM 58.2°F14.6°C 43.5°F6.4°C 58% Calm Calm 4.0 mph6.4 kmh 29.71 in1006.1 mb 0.00 in0.0 mm 0.00 in0.0 mm 0.00 in0.0 mm
01:14 AM 58.2°F14.6°C 43.5°F6.4°C 58% Calm Calm -- 29.70 in1005.8 mb 0.00 in0.0 mm 0.00 in0.0 mm 0.00 in0.0 mm
01:19 AM 58.0°F14.4°C 43.3°F6.3°C 58% Calm Calm 4.0 mph6.4 kmh 29.75 in1007.5 mb 0.00 in0.0 mm 0.00 in0.0 mm 0.00 in0.0 mm
01:24 AM 58.0°F14.4°C 43.3°F6.3°C 58% 6.0 mph S9.7 kmh S 6.0 mph9.7 kmh 29.75 in1007.5 mb 0.00 in0.0 mm 0.00 in0.0 mm 0.00 in0.0 mm
01:29 AM 58.2°F14.6°C 43.5°F6.4°C 58% 3.0 mph SSE4.8 kmh SSE 6.0 mph9.7 kmh 29.75 in1007.5 mb 0.00 in0.0 mm 0.00 in0.0 mm 0.00 in0.0 mm
01:34 AM 58.3°F14.6°C 43.6°F6.4°C 58% Calm Calm 7.0 mph11.3 kmh 29.74 in1007.1 mb 0.00 in0.0 mm 0.00 in0.0 mm 0.00 in0.0 mm
01:39 AM 58.3°F14.6°C 43.6°F6.4°C 58% Calm Calm 7.0 mph11.3 kmh 29.74 in1007.1 mb 0.00 in0.0 mm 0.00 in0.0 mm 0.00 in0.0 mm
01:44 AM 58.4°F14.7°C 43.7°F6.5°C 58% Calm Calm 10.0 mph16.1 kmh 29.74 in1007.1 mb 0.00 in0.0 mm 0.00 in0.0 mm 0.00 in0.0 mm
01:49 AM 58.3°F14.6°C 43.6°F6.4°C 58% Calm Calm 1.0 mph1.6 kmh 29.74 in1007.1 mb 0.00 in0.0 mm 0.00 in0.0 mm 0.00 in0.0 mm
01:54 AM 58.2°F14.6°C 43.5°F6.4°C 58% 3.0 mph SSE4.8 kmh SSE 4.0 mph6.4 kmh 29.74 in1007.1 mb 0.00 in0.0 mm 0.00 in0.0 mm 0.00 in0.0 mm
01:59 AM 58.2°F14.6°C 43.5°F6.4°C 58% Calm Calm 5.0 mph8.0 kmh 29.74 in1007.1 mb 0.00 in0.0 mm 0.00 in0.0 mm 0.00 in0.0 mm
02:04 AM 58.1°F14.5°C 43.4°F6.3°C 58% Calm Calm -- 29.74 in1007.1 mb 0.00 in0.0 mm 0.00 in0.0 mm 0.00 in0.0 mm
02:09 AM 58.1°F14.5°C 43.8°F6.6°C 59% Calm Calm -- 29.74 in1007.1 mb 0.00 in0.0 mm 0.00 in0.0 mm 0.00 in0.0 mm
02:14 AM 58.0°F14.4°C 43.8°F6.6°C 59% 1.0 mph S1.6 kmh S 5.0 mph8.0 kmh 29.73 in1006.8 mb 0.00 in0.0 mm 0.00 in0.0 mm 0.00 in0.0 mm
02:19 AM 58.0°F14.4°C 43.8°F6.6°C 59% Calm Calm -- 29.73 in1006.8 mb 0.00 in0.0 mm 0.00 in0.0 mm 0.00 in0.0 mm
02:24 AM 58.0°F14.4°C 43.8°F6.6°C 59% Calm Calm 4.0 mph6.4 kmh 29.73 in1006.8 mb 0.00 in0.0 mm 0.00 in0.0 mm 0.00 in0.0 mm
02:29 AM 58.0°F14.4°C 43.8°F6.6°C 59% Calm Calm 2.0 mph3.2 kmh 29.73 in1006.8 mb 0.00 in0.0 mm 0.00 in0.0 mm 0.00 in0.0 mm
02:34 AM 57.9°F14.4°C 43.7°F6.5°C 59% Calm Calm -- 29.73 in1006.8 mb 0.00 in0.0 mm 0.00 in0.0 mm 0.00 in0.0 mm
02:39 AM 57.9°F14.4°C 44.1°F6.7°C 60% Calm Calm 1.0 mph1.6 kmh 29.73 in1006.8 mb 0.00 in0.0 mm 0.00 in0.0 mm 0.00 in0.0 mm
02:44 AM 57.8°F14.3°C 44.0°F6.7°C 60% Calm Calm 2.0 mph3.2 kmh 29.73 in1006.8 mb 0.00 in0.0 mm 0.00 in0.0 mm 0.00 in0.0 mm
02:49 AM 57.7°F14.3°C 43.9°F6.6°C 60% Calm Calm -- 29.73 in1006.8 mb 0.00 in0.0 mm 0.00 in0.0 mm 0.00 in0.0 mm
02:54 AM 57.7°F14.3°C 44.3°F6.8°C 61% Calm Calm -- 29.73 in1006.8 mb 0.00 in0.0 mm 0.00 in0.0 mm 0.00 in0.0 mm
02:59 AM 57.5°F14.2°C 44.6°F7.0°C 62% Calm Calm 1.0 mph1.6 kmh 29.73 in1006.8 mb 0.00 in0.0 mm 0.00 in0.0 mm 0.00 in0.0 mm
03:04 AM 57.5°F14.2°C 44.6°F7.0°C 62% Calm Calm 3.0 mph4.8 kmh 29.74 in1007.1 mb 0.00 in0.0 mm 0.00 in0.0 mm 0.00 in0.0 mm
03:09 AM 57.4°F14.1°C 44.5°F6.9°C 62% Calm Calm 2.0 mph3.2 kmh 29.73 in1006.8 mb 0.00 in0.0 mm 0.00 in0.0 mm 0.00 in0.0 mm
03:14 AM 57.4°F14.1°C 44.9°F7.2°C 63% Calm Calm 3.0 mph4.8 kmh 29.74 in1007.1 mb 0.00 in0.0 mm 0.00 in0.0 mm 0.00 in0.0 mm
03:19 AM 57.3°F14.1°C 45.2°F7.3°C 64% Calm Calm 5.0 mph8.0 kmh 29.74 in1007.1 mb 0.00 in0.0 mm 0.00 in0.0 mm 0.00 in0.0 mm
03:24 AM 57.1°F13.9°C 45.8°F7.7°C 66% Calm Calm -- 29.73 in1006.8 mb 0.00 in0.0 mm 0.00 in0.0 mm 0.00 in0.0 mm
03:29 AM 56.8°F13.8°C 46.4°F8.0°C 68% Calm Calm -- 29.73 in1006.8 mb 0.00 in0.0 mm 0.00 in0.0 mm 0.00 in0.0 mm
03:34 AM 56.5°F13.6°C 46.5°F8.1°C 69% Calm Calm 2.0 mph3.2 kmh 29.73 in1006.8 mb 0.00 in0.0 mm 0.00 in0.0 mm 0.00 in0.0 mm
03:39 AM 56.4°F13.6°C 46.4°F8.0°C 69% Calm Calm -- 29.73 in1006.8 mb 0.00 in0.0 mm 0.00 in0.0 mm 0.00 in0.0 mm
03:49 AM 56.1°F13.4°C 46.8°F8.2°C 71% Calm Calm -- 29.73 in1006.8 mb 0.00 in0.0 mm 0.00 in0.0 mm 0.00 in0.0 mm
03:54 AM 56.0°F13.3°C 47.1°F8.4°C 72% Calm Calm 3.0 mph4.8 kmh 29.73 in1006.8 mb 0.00 in0.0 mm 0.00 in0.0 mm 0.00 in0.0 mm
03:59 AM 55.7°F13.2°C 47.2°F8.4°C 73% Calm Calm 3.0 mph4.8 kmh 29.74 in1007.1 mb 0.00 in0.0 mm 0.00 in0.0 mm 0.00 in0.0 mm
04:04 AM 55.5°F13.1°C 47.7°F8.7°C 75% Calm Calm 3.0 mph4.8 kmh 29.74 in1007.1 mb 0.00 in0.0 mm 0.00 in0.0 mm 0.00 in0.0 mm
04:09 AM 55.1°F12.8°C 47.7°F8.7°C 76% Calm Calm 2.0 mph3.2 kmh 29.74 in1007.1 mb 0.00 in0.0 mm 0.00 in0.0 mm 0.00 in0.0 mm
04:14 AM 54.9°F12.7°C 47.8°F8.8°C 77% Calm Calm 5.0 mph8.0 kmh 29.74 in1007.1 mb 0.00 in0.0 mm 0.00 in0.0 mm 0.00 in0.0 mm
04:19 AM 54.7°F12.6°C 48.0°F8.9°C 78% Calm Calm 4.0 mph6.4 kmh 29.75 in1007.5 mb 0.00 in0.0 mm 0.00 in0.0 mm 0.00 in0.0 mm
04:24 AM 54.4°F12.4°C 48.0°F8.9°C 79% Calm Calm 2.0 mph3.2 kmh 29.75 in1007.5 mb 0.00 in0.0 mm 0.00 in0.0 mm 0.00 in0.0 mm
04:29 AM 54.2°F12.3°C 48.2°F9.0°C 80% Calm Calm -- 29.75 in1007.5 mb 0.00 in0.0 mm 0.00 in0.0 mm 0.00 in0.0 mm
04:34 AM 54.0°F12.2°C 48.3°F9.1°C 81% Calm Calm -- 29.75 in1007.5 mb 0.00 in0.0 mm 0.00 in0.0 mm 0.00 in0.0 mm
04:39 AM 53.7°F12.1°C 48.3°F9.1°C 82% Calm Calm -- 29.75 in1007.5 mb 0.00 in0.0 mm 0.00 in0.0 mm 0.00 in0.0 mm
04:44 AM 53.6°F12.0°C 48.6°F9.2°C 83% Calm Calm -- 29.75 in1007.5 mb 0.00 in0.0 mm 0.00 in0.0 mm 0.00 in0.0 mm
04:49 AM 53.4°F11.9°C 48.7°F9.3°C 84% Calm Calm -- 29.75 in1007.5 mb 0.00 in0.0 mm 0.00 in0.0 mm 0.00 in0.0 mm
04:54 AM 53.2°F11.8°C 48.5°F9.2°C 84% Calm Calm -- 29.75 in1007.5 mb 0.00 in0.0 mm 0.00 in0.0 mm 0.00 in0.0 mm
04:59 AM 53.1°F11.7°C 48.7°F9.3°C 85% Calm Calm -- 29.75 in1007.5 mb 0.00 in0.0 mm 0.00 in0.0 mm 0.00 in0.0 mm
05:04 AM 53.0°F11.7°C 48.9°F9.4°C 86% Calm Calm 1.0 mph1.6 kmh 29.75 in1007.5 mb 0.00 in0.0 mm 0.00 in0.0 mm 0.00 in0.0 mm
05:09 AM 52.7°F11.5°C 48.6°F9.2°C 86% 2.0 mph NNW3.2 kmh NNW 5.0 mph8.0 kmh 29.76 in1007.8 mb 0.00 in0.0 mm 0.00 in0.0 mm 0.00 in0.0 mm
05:14 AM 52.4°F11.3°C 48.6°F9.2°C 87% 3.0 mph NNW4.8 kmh NNW 8.0 mph12.9 kmh 29.77 in1008.1 mb 0.00 in0.0 mm 0.00 in0.0 mm 0.00 in0.0 mm
05:19 AM 52.2°F11.2°C 48.8°F9.3°C 88% Calm Calm 8.0 mph12.9 kmh 29.77 in1008.1 mb 0.00 in0.0 mm 0.00 in0.0 mm 0.00 in0.0 mm
05:24 AM 51.9°F11.1°C 48.5°F9.2°C 88% 1.0 mph NW1.6 kmh NW 8.0 mph12.9 kmh 29.77 in1008.1 mb 0.00 in0.0 mm 0.00 in0.0 mm 0.00 in0.0 mm
05:29 AM 51.8°F11.0°C 49.5°F9.7°C 92% Calm Calm 8.0 mph12.9 kmh 29.77 in1008.1 mb 0.00 in0.0 mm 0.00 in0.0 mm 0.00 in0.0 mm
05:34 AM 51.6°F10.9°C 48.5°F9.2°C 89% Calm Calm -- 29.77 in1008.1 mb 0.00 in0.0 mm 0.00 in0.0 mm 0.00 in0.0 mm
05:39 AM 51.5°F10.8°C 48.7°F9.3°C 90% Calm Calm 3.0 mph4.8 kmh 29.78 in1008.5 mb 0.00 in0.0 mm 0.00 in0.0 mm 0.00 in0.0 mm
05:44 AM 51.3°F10.7°C 48.5°F9.2°C 90% 3.0 mph W4.8 kmh W 7.0 mph11.3 kmh 29.78 in1008.5 mb 0.00 in0.0 mm 0.00 in0.0 mm 0.00 in0.0 mm
05:49 AM 51.0°F10.6°C 48.2°F9.0°C 90% Calm Calm 8.0 mph12.9 kmh 29.78 in1008.5 mb 0.00 in0.0 mm 0.00 in0.0 mm 0.00 in0.0 mm
05:54 AM 50.9°F10.5°C 48.1°F8.9°C 90% 1.0 mph NW1.6 kmh NW 14.0 mph22.5 kmh 29.79 in1008.8 mb 0.00 in0.0 mm 0.00 in0.0 mm 0.00 in0.0 mm
05:59 AM 50.7°F10.4°C 47.9°F8.8°C 90% 2.0 mph NNW3.2 kmh NNW 14.0 mph22.5 kmh 29.79 in1008.8 mb 0.00 in0.0 mm 0.00 in0.0 mm 0.00 in0.0 mm
06:04 AM 50.3°F10.2°C 47.2°F8.4°C 89% 2.0 mph WSW3.2 kmh WSW 14.0 mph22.5 kmh 29.79 in1008.8 mb 0.00 in0.0 mm 0.00 in0.0 mm 0.00 in0.0 mm
06:09 AM 50.0°F10.0°C 46.6°F8.1°C 88% 7.0 mph NW11.3 kmh NW 14.0 mph22.5 kmh 29.79 in1008.8 mb 0.00 in0.0 mm 0.00 in0.0 mm 0.00 in0.0 mm
06:14 AM 49.6°F9.8°C 46.2°F7.9°C 88% 2.0 mph NW3.2 kmh NW 14.0 mph22.5 kmh 29.79 in1008.8 mb 0.00 in0.0 mm 0.00 in0.0 mm 0.00 in0.0 mm
06:19 AM 49.4°F9.7°C 46.0°F7.8°C 88% 2.0 mph NW3.2 kmh NW 14.0 mph22.5 kmh 29.79 in1008.8 mb 0.00 in0.0 mm 0.00 in0.0 mm 0.00 in0.0 mm
06:24 AM 49.2°F9.6°C 45.5°F7.5°C 87% Calm Calm 14.0 mph22.5 kmh 29.80 in1009.1 mb 0.00 in0.0 mm 0.00 in0.0 mm 0.00 in0.0 mm
06:29 AM 49.1°F9.5°C 45.7°F7.6°C 88% 1.0 mph N1.6 kmh N 14.0 mph22.5 kmh 29.80 in1009.1 mb 0.00 in0.0 mm 0.00 in0.0 mm 0.00 in0.0 mm
06:34 AM 48.9°F9.4°C 45.5°F7.5°C 88% 2.0 mph W3.2 kmh W 10.0 mph16.1 kmh 29.81 in1009.5 mb 0.00 in0.0 mm 0.00 in0.0 mm 0.00 in0.0 mm
06:39 AM 48.8°F9.3°C 45.4°F7.4°C 88% 2.0 mph W3.2 kmh W 10.0 mph16.1 kmh 29.82 in1009.8 mb 0.00 in0.0 mm 0.00 in0.0 mm 0.00 in0.0 mm
06:44 AM 48.7°F9.3°C 45.3°F7.4°C 88% 9.0 mph NW14.5 kmh NW 20.0 mph32.2 kmh 29.82 in1009.8 mb 0.00 in0.0 mm 0.00 in0.0 mm 0.00 in0.0 mm
06:49 AM 48.5°F9.2°C 44.8°F7.1°C 87% 2.0 mph NNW3.2 kmh NNW 20.0 mph32.2 kmh 29.82 in1009.8 mb 0.00 in0.0 mm 0.00 in0.0 mm 0.00 in0.0 mm
06:54 AM 48.2°F9.0°C 44.2°F6.8°C 86% 3.0 mph NW4.8 kmh NW 20.0 mph32.2 kmh 29.82 in1009.8 mb 0.00 in0.0 mm 0.00 in0.0 mm 0.00 in0.0 mm
06:59 AM 48.0°F8.9°C 44.0°F6.7°C 86% 2.0 mph NW3.2 kmh NW 20.0 mph32.2 kmh 29.82 in1009.8 mb 0.00 in0.0 mm 0.00 in0.0 mm 0.00 in0.0 mm
07:04 AM 47.7°F8.7°C 43.4°F6.3°C 85% 3.0 mph 4.8 kmh 13.0 mph20.9 kmh 29.82 in1009.8 mb 0.00 in0.0 mm 0.00 in0.0 mm 0.00 in0.0 mm
07:09 AM 47.4°F8.6°C 42.5°F5.8°C 83% 6.0 mph NW9.7 kmh NW 16.0 mph25.7 kmh 29.83 in1010.2 mb 0.00 in0.0 mm 0.00 in0.0 mm 0.00 in0.0 mm
07:14 AM 47.2°F8.4°C 41.7°F5.4°C 81% 14.0 mph NW22.5 kmh NW 16.0 mph25.7 kmh 29.84 in1010.5 mb 0.00 in0.0 mm 0.00 in0.0 mm 0.00 in0.0 mm
07:19 AM 47.0°F8.3°C 41.2°F5.1°C 80% 4.0 mph NNW6.4 kmh NNW 16.0 mph25.7 kmh 29.85 in1010.8 mb 0.00 in0.0 mm 0.00 in0.0 mm 0.00 in0.0 mm
07:24 AM 46.7°F8.2°C 40.5°F4.7°C 79% Calm Calm 16.0 mph25.7 kmh 29.85 in1010.8 mb 0.00 in0.0 mm 0.00 in0.0 mm 0.00 in0.0 mm
07:29 AM 46.2°F7.9°C 39.4°F4.1°C 77% 3.0 mph NW4.8 kmh NW 13.0 mph20.9 kmh 29.85 in1010.8 mb 0.00 in0.0 mm 0.00 in0.0 mm 0.00 in0.0 mm
07:34 AM 45.8°F7.7°C 38.7°F3.7°C 76% 10.0 mph NNW16.1 kmh NNW 13.0 mph20.9 kmh 29.85 in1010.8 mb 0.00 in0.0 mm 0.00 in0.0 mm 0.00 in0.0 mm
07:39 AM 45.4°F7.4°C 36.6°F2.6°C 71% 7.0 mph NW11.3 kmh NW 16.0 mph25.7 kmh 29.86 in1011.2 mb 0.00 in0.0 mm 0.00 in0.0 mm 0.00 in0.0 mm
07:44 AM 45.0°F7.2°C 35.8°F2.1°C 70% 4.0 mph NNW6.4 kmh NNW 17.0 mph27.4 kmh 29.86 in1011.2 mb 0.00 in0.0 mm 0.00 in0.0 mm 0.00 in0.0 mm
07:49 AM 44.7°F7.1°C 35.2°F1.8°C 69% 7.0 mph NW11.3 kmh NW 20.0 mph32.2 kmh 29.86 in1011.2 mb 0.00 in0.0 mm 0.00 in0.0 mm 0.00 in0.0 mm
07:54 AM 44.6°F7.0°C 35.1°F1.7°C 69% 4.0 mph NW6.4 kmh NW 20.0 mph32.2 kmh 29.87 in1011.5 mb 0.00 in0.0 mm 0.00 in0.0 mm 0.00 in0.0 mm
07:59 AM 44.3°F6.8°C 34.8°F1.6°C 69% 11.0 mph N17.7 kmh N 20.0 mph32.2 kmh 29.87 in1011.5 mb 0.00 in0.0 mm 0.00 in0.0 mm 0.00 in0.0 mm
08:04 AM 44.2°F6.8°C 34.3°F1.3°C 68% 5.0 mph WNW8.0 kmh WNW 20.0 mph32.2 kmh 29.88 in1011.9 mb 0.00 in0.0 mm 0.00 in0.0 mm 0.00 in0.0 mm
08:09 AM 44.0°F6.7°C 34.5°F1.4°C 69% 13.0 mph N20.9 kmh N 19.0 mph30.6 kmh 29.88 in1011.9 mb 0.00 in0.0 mm 0.00 in0.0 mm 0.00 in0.0 mm
08:14 AM 43.8°F6.6°C 33.9°F1.1°C 68% 10.0 mph NW16.1 kmh NW 19.0 mph30.6 kmh 29.88 in1011.9 mb 0.00 in0.0 mm 0.00 in0.0 mm 0.00 in0.0 mm
08:19 AM 43.7°F6.5°C 33.8°F1.0°C 68% 4.0 mph NW6.4 kmh NW 17.0 mph27.4 kmh 29.89 in1012.2 mb 0.00 in0.0 mm 0.00 in0.0 mm 0.00 in0.0 mm
08:24 AM 43.6°F6.4°C 34.1°F1.2°C 69% 4.0 mph NW6.4 kmh NW 17.0 mph27.4 kmh 29.89 in1012.2 mb 0.00 in0.0 mm 0.00 in0.0 mm 0.00 in0.0 mm
08:29 AM 43.4°F6.3°C 33.6°F0.9°C 68% 9.0 mph NNW14.5 kmh NNW 14.0 mph22.5 kmh 29.90 in1012.5 mb 0.00 in0.0 mm 0.00 in0.0 mm 0.00 in0.0 mm
08:34 AM 43.4°F6.3°C 33.6°F0.9°C 68% 8.0 mph NNW12.9 kmh NNW 14.0 mph22.5 kmh 29.90 in1012.5 mb 0.00 in0.0 mm 0.00 in0.0 mm 0.00 in0.0 mm
08:39 AM 43.2°F6.2°C 33.0°F0.6°C 67% 5.0 mph W8.0 kmh W 17.0 mph27.4 kmh 29.90 in1012.5 mb 0.00 in0.0 mm 0.00 in0.0 mm 0.00 in0.0 mm
08:44 AM 43.0°F6.1°C 32.4°F0.2°C 66% 8.0 mph NNW12.9 kmh NNW 18.0 mph29.0 kmh 29.90 in1012.5 mb 0.00 in0.0 mm 0.00 in0.0 mm 0.00 in0.0 mm
08:49 AM 42.9°F6.1°C 32.7°F0.4°C 67% 10.0 mph NW16.1 kmh NW 18.0 mph29.0 kmh 29.90 in1012.5 mb 0.00 in0.0 mm 0.00 in0.0 mm 0.00 in0.0 mm
08:54 AM 42.8°F6.0°C 32.2°F0.1°C 66% 7.0 mph N11.3 kmh N 20.0 mph32.2 kmh 29.91 in1012.9 mb 0.00 in0.0 mm 0.00 in0.0 mm 0.00 in0.0 mm
08:59 AM 42.7°F5.9°C 31.8°F-0.1°C 65% 5.0 mph NW8.0 kmh NW 20.0 mph32.2 kmh 29.91 in1012.9 mb 0.00 in0.0 mm 0.00 in0.0 mm 0.00 in0.0 mm
09:04 AM 42.7°F5.9°C 31.8°F-0.1°C 65% 6.0 mph WNW9.7 kmh WNW 20.0 mph32.2 kmh 29.91 in1012.9 mb 0.00 in0.0 mm 0.00 in0.0 mm 0.00 in0.0 mm
09:09 AM 42.6°F5.9°C 31.3°F-0.4°C 64% 9.0 mph NNW14.5 kmh NNW 20.0 mph32.2 kmh 29.91 in1012.9 mb 0.00 in0.0 mm 0.00 in0.0 mm 0.00 in0.0 mm
09:14 AM 42.5°F5.8°C 31.2°F-0.4°C 64% 18.0 mph NNW29.0 kmh NNW 18.0 mph29.0 kmh 29.92 in1013.2 mb 0.00 in0.0 mm 0.00 in0.0 mm 0.00 in0.0 mm
09:19 AM 42.5°F5.8°C 31.2°F-0.4°C 64% 4.0 mph NNW6.4 kmh NNW 18.0 mph29.0 kmh 29.93 in1013.5 mb 0.00 in0.0 mm 0.00 in0.0 mm 0.00 in0.0 mm
09:24 AM 42.4°F5.8°C 31.1°F-0.5°C 64% 4.0 mph NW6.4 kmh NW 18.0 mph29.0 kmh 29.93 in1013.5 mb 0.00 in0.0 mm 0.00 in0.0 mm 0.00 in0.0 mm
09:29 AM 42.4°F5.8°C 31.5°F-0.3°C 65% 2.0 mph WSW3.2 kmh WSW 18.0 mph29.0 kmh 29.93 in1013.5 mb 0.00 in0.0 mm 0.00 in0.0 mm 0.00 in0.0 mm
09:34 AM 42.3°F5.7°C 31.0°F-0.6°C 64% 6.0 mph N9.7 kmh N 16.0 mph25.7 kmh 29.93 in1013.5 mb 0.00 in0.0 mm 0.00 in0.0 mm 0.00 in0.0 mm
09:39 AM 42.1°F5.6°C 31.2°F-0.4°C 65% 5.0 mph NW8.0 kmh NW 16.0 mph25.7 kmh 29.94 in1013.9 mb 0.00 in0.0 mm 0.00 in0.0 mm 0.00 in0.0 mm
09:44 AM 41.7°F5.4°C 30.4°F-0.9°C 64% 9.0 mph N14.5 kmh N 23.0 mph37.0 kmh 29.94 in1013.9 mb 0.00 in0.0 mm 0.00 in0.0 mm 0.00 in0.0 mm
09:49 AM 41.6°F5.3°C 30.7°F-0.7°C 65% 4.0 mph WNW6.4 kmh WNW 23.0 mph37.0 kmh 29.94 in1013.9 mb 0.00 in0.0 mm 0.00 in0.0 mm 0.00 in0.0 mm
09:54 AM 41.6°F5.3°C 30.7°F-0.7°C 65% 6.0 mph NW9.7 kmh NW 23.0 mph37.0 kmh 29.94 in1013.9 mb 0.00 in0.0 mm 0.00 in0.0 mm 0.00 in0.0 mm
09:59 AM 41.4°F5.2°C 30.9°F-0.6°C 66% 10.0 mph NNW16.1 kmh NNW 23.0 mph37.0 kmh 29.95 in1014.2 mb 0.00 in0.0 mm 0.00 in0.0 mm 0.00 in0.0 mm
10:04 AM 41.0°F5.0°C 30.9°F-0.6°C 67% 7.0 mph NW11.3 kmh NW 18.0 mph29.0 kmh 29.96 in1014.6 mb 0.00 in0.0 mm 0.00 in0.0 mm 0.00 in0.0 mm
10:09 AM 40.3°F4.6°C 31.0°F-0.6°C 69% 12.0 mph NW19.3 kmh NW 18.0 mph29.0 kmh 29.96 in1014.6 mb 0.00 in0.0 mm 0.00 in0.0 mm 0.00 in0.0 mm
10:14 AM 39.5°F4.2°C 30.9°F-0.6°C 71% 3.0 mph NNW4.8 kmh NNW 18.0 mph29.0 kmh 29.97 in1014.9 mb 0.00 in0.0 mm 0.00 in0.0 mm 0.00 in0.0 mm
10:19 AM 39.1°F3.9°C 30.8°F-0.7°C 72% 12.0 mph NW19.3 kmh NW 18.0 mph29.0 kmh 29.97 in1014.9 mb 0.00 in0.0 mm 0.00 in0.0 mm 0.00 in0.0 mm
10:24 AM 38.9°F3.8°C 31.0°F-0.6°C 73% 1.0 mph N1.6 kmh N 17.0 mph27.4 kmh 29.98 in1015.2 mb 0.00 in0.0 mm 0.00 in0.0 mm 0.00 in0.0 mm
10:29 AM 38.6°F3.7°C 31.0°F-0.6°C 74% 7.0 mph N11.3 kmh N 17.0 mph27.4 kmh 29.98 in1015.2 mb 0.00 in0.0 mm 0.00 in0.0 mm 0.00 in0.0 mm
10:34 AM 38.0°F3.3°C 30.8°F-0.7°C 75% 10.0 mph NW16.1 kmh NW 16.0 mph25.7 kmh 29.98 in1015.2 mb 0.00 in0.0 mm 0.00 in0.0 mm 0.00 in0.0 mm
10:39 AM 37.7°F3.2°C 31.2°F-0.4°C 77% 7.0 mph NNW11.3 kmh NNW 16.0 mph25.7 kmh 29.98 in1015.2 mb 0.00 in0.0 mm 0.00 in0.0 mm 0.00 in0.0 mm
10:44 AM 37.9°F3.3°C 31.3°F-0.4°C 77% Calm Calm 14.0 mph22.5 kmh 29.98 in1015.2 mb 0.00 in0.0 mm 0.00 in0.0 mm 0.00 in0.0 mm
10:49 AM 38.2°F3.4°C 31.3°F-0.4°C 76% 3.0 mph WNW4.8 kmh WNW 14.0 mph22.5 kmh 29.97 in1014.9 mb 0.00 in0.0 mm 0.00 in0.0 mm 0.00 in0.0 mm
10:54 AM 38.8°F3.8°C 30.6°F-0.8°C 72% 4.0 mph NW6.4 kmh NW 9.0 mph14.5 kmh 29.97 in1014.9 mb 0.00 in0.0 mm 0.00 in0.0 mm 0.00 in0.0 mm
10:59 AM 39.6°F4.2°C 29.6°F-1.3°C 67% 5.0 mph NW8.0 kmh NW 11.0 mph17.7 kmh 29.97 in1014.9 mb 0.00 in0.0 mm 0.00 in0.0 mm 0.00 in0.0 mm
11:04 AM 40.0°F4.4°C 29.6°F-1.3°C 66% Calm Calm 12.0 mph19.3 kmh 29.97 in1014.9 mb 0.00 in0.0 mm 0.00 in0.0 mm 0.00 in0.0 mm
11:09 AM 40.2°F4.6°C 29.4°F-1.4°C 65% 1.0 mph NW1.6 kmh NW 12.0 mph19.3 kmh 29.98 in1015.2 mb 0.00 in0.0 mm 0.00 in0.0 mm 0.00 in0.0 mm
11:14 AM 40.3°F4.6°C 28.7°F-1.8°C 63% 3.0 mph NW4.8 kmh NW 12.0 mph19.3 kmh 29.98 in1015.2 mb 0.00 in0.0 mm 0.00 in0.0 mm 0.00 in0.0 mm
11:19 AM 40.3°F4.6°C 28.3°F-2.1°C 62% 3.0 mph W4.8 kmh W 16.0 mph25.7 kmh 29.98 in1015.2 mb 0.00 in0.0 mm 0.00 in0.0 mm 0.00 in0.0 mm
11:24 AM 40.3°F4.6°C 27.9°F-2.3°C 61% 1.0 mph NW1.6 kmh NW 16.0 mph25.7 kmh 29.98 in1015.2 mb 0.00 in0.0 mm 0.00 in0.0 mm 0.00 in0.0 mm
11:29 AM 40.2°F4.6°C 27.8°F-2.3°C 61% 2.0 mph NW3.2 kmh NW 16.0 mph25.7 kmh 29.98 in1015.2 mb 0.00 in0.0 mm 0.00 in0.0 mm 0.00 in0.0 mm
11:34 AM 40.1°F4.5°C 27.7°F-2.4°C 61% 10.0 mph NW16.1 kmh NW 16.0 mph25.7 kmh 29.98 in1015.2 mb 0.00 in0.0 mm 0.00 in0.0 mm 0.00 in0.0 mm
11:39 AM 40.1°F4.5°C 27.7°F-2.4°C 61% 5.0 mph NNW8.0 kmh NNW 13.0 mph20.9 kmh 29.98 in1015.2 mb 0.00 in0.0 mm 0.00 in0.0 mm 0.00 in0.0 mm
11:44 AM 40.0°F4.4°C 26.4°F-3.1°C 58% 6.0 mph NW9.7 kmh NW 14.0 mph22.5 kmh 29.98 in1015.2 mb 0.00 in0.0 mm 0.00 in0.0 mm 0.00 in0.0 mm
11:49 AM 39.8°F4.3°C 26.2°F-3.2°C 58% 8.0 mph NW12.9 kmh NW 22.0 mph35.4 kmh 29.98 in1015.2 mb 0.00 in0.0 mm 0.00 in0.0 mm 0.00 in0.0 mm
11:54 AM 39.7°F4.3°C 26.1°F-3.3°C 58% 4.0 mph NW6.4 kmh NW 22.0 mph35.4 kmh 29.98 in1015.2 mb 0.00 in0.0 mm 0.00 in0.0 mm 0.00 in0.0 mm
11:59 AM 39.6°F4.2°C 26.1°F-3.3°C 58% 4.0 mph N6.4 kmh N 22.0 mph35.4 kmh 29.98 in1015.2 mb 0.00 in0.0 mm 0.00 in0.0 mm 0.00 in0.0 mm
12:04 PM 39.6°F4.2°C 25.6°F-3.6°C 57% 6.0 mph N9.7 kmh N 22.0 mph35.4 kmh 29.98 in1015.2 mb 0.00 in0.0 mm 0.00 in0.0 mm 0.00 in0.0 mm
12:09 PM 39.6°F4.2°C 26.1°F-3.3°C 58% 4.0 mph NW6.4 kmh NW 14.0 mph22.5 kmh 29.98 in1015.2 mb 0.00 in0.0 mm 0.00 in0.0 mm 0.00 in0.0 mm
12:14 PM 39.5°F4.2°C 26.0°F-3.3°C 58% 12.0 mph N19.3 kmh N 18.0 mph29.0 kmh 29.98 in1015.2 mb 0.00 in0.0 mm 0.00 in0.0 mm 0.00 in0.0 mm
12:19 PM 39.5°F4.2°C 26.0°F-3.3°C 58% 6.0 mph NW9.7 kmh NW 18.0 mph29.0 kmh 29.97 in1014.9 mb 0.00 in0.0 mm 0.00 in0.0 mm 0.00 in0.0 mm
12:24 PM 39.4°F4.1°C 25.9°F-3.4°C 58% 7.0 mph NW11.3 kmh NW 18.0 mph29.0 kmh 29.97 in1014.9 mb 0.00 in0.0 mm 0.00 in0.0 mm 0.00 in0.0 mm
12:29 PM 39.2°F4.0°C 25.7°F-3.5°C 58% Calm Calm 18.0 mph29.0 kmh 29.97 in1014.9 mb 0.00 in0.0 mm 0.00 in0.0 mm 0.00 in0.0 mm
12:34 PM 39.2°F4.0°C 25.7°F-3.5°C 58% 9.0 mph NNW14.5 kmh NNW 18.0 mph29.0 kmh 29.97 in1014.9 mb 0.00 in0.0 mm 0.00 in0.0 mm 0.00 in0.0 mm
12:39 PM 39.1°F3.9°C 25.6°F-3.6°C 58% Calm Calm 18.0 mph29.0 kmh 29.97 in1014.9 mb 0.00 in0.0 mm 0.00 in0.0 mm 0.00 in0.0 mm
12:44 PM 39.1°F3.9°C 25.6°F-3.6°C 58% 2.0 mph NW3.2 kmh NW 12.0 mph19.3 kmh 29.97 in1014.9 mb 0.00 in0.0 mm 0.00 in0.0 mm 0.00 in0.0 mm
12:49 PM 39.1°F3.9°C 26.0°F-3.3°C 59% 1.0 mph NW1.6 kmh NW 12.0 mph19.3 kmh 29.97 in1014.9 mb 0.00 in0.0 mm 0.00 in0.0 mm 0.00 in0.0 mm
12:54 PM 38.9°F3.8°C 25.8°F-3.4°C 59% Calm Calm 15.0 mph24.1 kmh 29.97 in1014.9 mb 0.00 in0.0 mm 0.00 in0.0 mm 0.00 in0.0 mm
12:59 PM 38.9°F3.8°C 25.8°F-3.4°C 59% 4.0 mph NW6.4 kmh NW 15.0 mph24.1 kmh 29.97 in1014.9 mb 0.00 in0.0 mm 0.00 in0.0 mm 0.00 in0.0 mm
01:04 PM 38.8°F3.8°C 26.1°F-3.3°C 60% 2.0 mph WNW3.2 kmh WNW 15.0 mph24.1 kmh 29.97 in1014.9 mb 0.00 in0.0 mm 0.00 in0.0 mm 0.00 in0.0 mm
01:09 PM 38.8°F3.8°C 25.7°F-3.5°C 59% Calm Calm 15.0 mph24.1 kmh 29.97 in1014.9 mb 0.00 in0.0 mm 0.00 in0.0 mm 0.00 in0.0 mm
01:14 PM 38.7°F3.7°C 25.6°F-3.6°C 59% Calm Calm 13.0 mph20.9 kmh 29.98 in1015.2 mb 0.00 in0.0 mm 0.00 in0.0 mm 0.00 in0.0 mm
01:19 PM 38.8°F3.8°C 26.1°F-3.3°C 60% Calm Calm 13.0 mph20.9 kmh 29.98 in1015.2 mb 0.00 in0.0 mm 0.00 in0.0 mm 0.00 in0.0 mm
01:24 PM 38.7°F3.7°C 25.6°F-3.6°C 59% 5.0 mph NW8.0 kmh NW 11.0 mph17.7 kmh 29.98 in1015.2 mb 0.00 in0.0 mm 0.00 in0.0 mm 0.00 in0.0 mm
01:29 PM 38.7°F3.7°C 25.6°F-3.6°C 59% 1.0 mph WNW1.6 kmh WNW 11.0 mph17.7 kmh 29.97 in1014.9 mb 0.00 in0.0 mm 0.00 in0.0 mm 0.00 in0.0 mm
01:34 PM 38.6°F3.7°C 24.3°F-4.3°C 56% 9.0 mph NW14.5 kmh NW 13.0 mph20.9 kmh 29.97 in1014.9 mb 0.00 in0.0 mm 0.00 in0.0 mm 0.00 in0.0 mm
01:39 PM 38.5°F3.6°C 23.8°F-4.6°C 55% 9.0 mph NW14.5 kmh NW 22.0 mph35.4 kmh 29.97 in1014.9 mb 0.00 in0.0 mm 0.00 in0.0 mm 0.00 in0.0 mm
01:44 PM 38.5°F3.6°C 23.8°F-4.6°C 55% 10.0 mph NW16.1 kmh NW 22.0 mph35.4 kmh 29.97 in1014.9 mb 0.00 in0.0 mm 0.00 in0.0 mm 0.00 in0.0 mm
01:49 PM 38.4°F3.6°C 23.7°F-4.6°C 55% 5.0 mph NW8.0 kmh NW 22.0 mph35.4 kmh 29.97 in1014.9 mb 0.00 in0.0 mm 0.00 in0.0 mm 0.00 in0.0 mm
01:54 PM 38.4°F3.6°C 23.7°F-4.6°C 55% 8.0 mph NW12.9 kmh NW 22.0 mph35.4 kmh 29.98 in1015.2 mb 0.00 in0.0 mm 0.00 in0.0 mm 0.00 in0.0 mm
01:59 PM 38.5°F3.6°C 23.8°F-4.6°C 55% Calm Calm 18.0 mph29.0 kmh 29.97 in1014.9 mb 0.00 in0.0 mm 0.00 in0.0 mm 0.00 in0.0 mm
02:04 PM 38.6°F3.7°C 24.3°F-4.3°C 56% 6.0 mph NNW9.7 kmh NNW 18.0 mph29.0 kmh 29.97 in1014.9 mb 0.00 in0.0 mm 0.00 in0.0 mm 0.00 in0.0 mm
02:09 PM 38.7°F3.7°C 23.9°F-4.5°C 55% 1.0 mph NW1.6 kmh NW 15.0 mph24.1 kmh 29.97 in1014.9 mb 0.00 in0.0 mm 0.00 in0.0 mm 0.00 in0.0 mm
02:14 PM 38.8°F3.8°C 24.0°F-4.4°C 55% 5.0 mph NNW8.0 kmh NNW 15.0 mph24.1 kmh 29.97 in1014.9 mb 0.00 in0.0 mm 0.00 in0.0 mm 0.00 in0.0 mm
02:19 PM 38.9°F3.8°C 23.7°F-4.6°C 54% 5.0 mph NW8.0 kmh NW 15.0 mph24.1 kmh 29.98 in1015.2 mb 0.00 in0.0 mm 0.00 in0.0 mm 0.00 in0.0 mm
02:24 PM 39.0°F3.9°C 23.8°F-4.6°C 54% 5.0 mph NW8.0 kmh NW 17.0 mph27.4 kmh 29.98 in1015.2 mb 0.00 in0.0 mm 0.00 in0.0 mm 0.00 in0.0 mm
02:29 PM 39.1°F3.9°C 23.9°F-4.5°C 54% 4.0 mph NE6.4 kmh NE 17.0 mph27.4 kmh 29.98 in1015.2 mb 0.00 in0.0 mm 0.00 in0.0 mm 0.00 in0.0 mm
02:34 PM 39.5°F4.2°C 24.7°F-4.1°C 55% 6.0 mph NNW9.7 kmh NNW 17.0 mph27.4 kmh 29.98 in1015.2 mb 0.00 in0.0 mm 0.00 in0.0 mm 0.00 in0.0 mm
02:39 PM 40.1°F4.5°C 24.4°F-4.2°C 53% 2.0 mph NNW3.2 kmh NNW 17.0 mph27.4 kmh 29.98 in1015.2 mb 0.00 in0.0 mm 0.00 in0.0 mm 0.00 in0.0 mm
02:44 PM 40.1°F4.5°C 23.9°F-4.5°C 52% 4.0 mph NW6.4 kmh NW 14.0 mph22.5 kmh 29.97 in1014.9 mb 0.00 in0.0 mm 0.00 in0.0 mm 0.00 in0.0 mm
02:49 PM 40.5°F4.7°C 24.3°F-4.3°C 52% 5.0 mph NW8.0 kmh NW 14.0 mph22.5 kmh 29.97 in1014.9 mb 0.00 in0.0 mm 0.00 in0.0 mm 0.00 in0.0 mm
02:54 PM 40.9°F4.9°C 24.2°F-4.3°C 51% 2.0 mph N3.2 kmh N 12.0 mph19.3 kmh 29.98 in1015.2 mb 0.00 in0.0 mm 0.00 in0.0 mm 0.00 in0.0 mm
02:59 PM 40.7°F4.8°C 24.0°F-4.4°C 51% 6.0 mph NW9.7 kmh NW 15.0 mph24.1 kmh 29.97 in1014.9 mb 0.00 in0.0 mm 0.00 in0.0 mm 0.00 in0.0 mm
03:04 PM 40.6°F4.8°C 24.4°F-4.2°C 52% 9.0 mph NW14.5 kmh NW 15.0 mph24.1 kmh 29.98 in1015.2 mb 0.00 in0.0 mm 0.00 in0.0 mm 0.00 in0.0 mm
03:09 PM 40.1°F4.5°C 23.9°F-4.5°C 52% 12.0 mph NNW19.3 kmh NNW 18.0 mph29.0 kmh 29.99 in1015.6 mb 0.00 in0.0 mm 0.00 in0.0 mm 0.00 in0.0 mm
03:14 PM 39.2°F4.0°C 23.5°F-4.7°C 53% 7.0 mph N11.3 kmh N 19.0 mph30.6 kmh 29.99 in1015.6 mb 0.00 in0.0 mm 0.00 in0.0 mm 0.00 in0.0 mm
03:19 PM 39.0°F3.9°C 24.2°F-4.3°C 55% 4.0 mph WSW6.4 kmh WSW 19.0 mph30.6 kmh 29.99 in1015.6 mb 0.00 in0.0 mm 0.00 in0.0 mm 0.00 in0.0 mm
03:24 PM 39.1°F3.9°C 24.7°F-4.1°C 56% 5.0 mph NW8.0 kmh NW 19.0 mph30.6 kmh 30.00 in1015.9 mb 0.00 in0.0 mm 0.00 in0.0 mm 0.00 in0.0 mm
03:29 PM 39.1°F3.9°C 25.2°F-3.8°C 57% 1.0 mph N1.6 kmh N 19.0 mph30.6 kmh 30.00 in1015.9 mb 0.00 in0.0 mm 0.00 in0.0 mm 0.00 in0.0 mm
03:34 PM 39.2°F4.0°C 25.7°F-3.5°C 58% 3.0 mph NNW4.8 kmh NNW 8.0 mph12.9 kmh 30.00 in1015.9 mb 0.00 in0.0 mm 0.00 in0.0 mm 0.00 in0.0 mm
03:39 PM 38.9°F3.8°C 24.6°F-4.1°C 56% 6.0 mph NW9.7 kmh NW 12.0 mph19.3 kmh 30.00 in1015.9 mb 0.00 in0.0 mm 0.00 in0.0 mm 0.00 in0.0 mm
03:44 PM 38.4°F3.6°C 24.1°F-4.4°C 56% 9.0 mph N14.5 kmh N 17.0 mph27.4 kmh 30.00 in1015.9 mb 0.00 in0.0 mm 0.00 in0.0 mm 0.00 in0.0 mm
03:49 PM 38.2°F3.4°C 24.3°F-4.3°C 57% 8.0 mph NNW12.9 kmh NNW 17.0 mph27.4 kmh 30.00 in1015.9 mb 0.00 in0.0 mm 0.00 in0.0 mm 0.00 in0.0 mm
03:54 PM 38.2°F3.4°C 24.7°F-4.1°C 58% 3.0 mph NW4.8 kmh NW 17.0 mph27.4 kmh 30.01 in1016.3 mb 0.00 in0.0 mm 0.00 in0.0 mm 0.00 in0.0 mm
03:59 PM 38.4°F3.6°C 24.9°F-3.9°C 58% 2.0 mph NW3.2 kmh NW 6.0 mph9.7 kmh 30.01 in1016.3 mb 0.00 in0.0 mm 0.00 in0.0 mm 0.00 in0.0 mm
04:04 PM 38.6°F3.7°C 24.7°F-4.1°C 57% Calm Calm 11.0 mph17.7 kmh 30.01 in1016.3 mb 0.00 in0.0 mm 0.00 in0.0 mm 0.00 in0.0 mm
04:09 PM 38.9°F3.8°C 25.0°F-3.9°C 57% 1.0 mph NNW1.6 kmh NNW 11.0 mph17.7 kmh 30.01 in1016.3 mb 0.00 in0.0 mm 0.00 in0.0 mm 0.00 in0.0 mm
04:14 PM 38.8°F3.8°C 24.5°F-4.2°C 56% 8.0 mph NNW12.9 kmh NNW 16.0 mph25.7 kmh 30.02 in1016.6 mb 0.00 in0.0 mm 0.00 in0.0 mm 0.00 in0.0 mm
04:19 PM 38.8°F3.8°C 24.9°F-3.9°C 57% 9.0 mph NE14.5 kmh NE 16.0 mph25.7 kmh 30.02 in1016.6 mb 0.00 in0.0 mm 0.00 in0.0 mm 0.00 in0.0 mm
04:24 PM 38.5°F3.6°C 25.0°F-3.9°C 58% 9.0 mph NW14.5 kmh NW 16.0 mph25.7 kmh 30.02 in1016.6 mb 0.00 in0.0 mm 0.00 in0.0 mm 0.00 in0.0 mm
04:29 PM 37.8°F3.2°C 25.2°F-3.8°C 60% 2.0 mph NNW3.2 kmh NNW 16.0 mph25.7 kmh 30.03 in1016.9 mb 0.00 in0.0 mm 0.00 in0.0 mm 0.00 in0.0 mm
04:34 PM 37.5°F3.1°C 24.9°F-3.9°C 60% 3.0 mph NE4.8 kmh NE 16.0 mph25.7 kmh 30.03 in1016.9 mb 0.00 in0.0 mm 0.00 in0.0 mm 0.00 in0.0 mm
04:39 PM 37.4°F3.0°C 24.8°F-4.0°C 60% 3.0 mph NNW4.8 kmh NNW 16.0 mph25.7 kmh 30.03 in1016.9 mb 0.00 in0.0 mm 0.00 in0.0 mm 0.00 in0.0 mm
04:44 PM 37.4°F3.0°C 23.6°F-4.7°C 57% 7.0 mph NW11.3 kmh NW 16.0 mph25.7 kmh 30.04 in1017.3 mb 0.00 in0.0 mm 0.00 in0.0 mm 0.00 in0.0 mm
04:49 PM 37.4°F3.0°C 23.6°F-4.7°C 57% 8.0 mph NW12.9 kmh NW 16.0 mph25.7 kmh 30.04 in1017.3 mb 0.00 in0.0 mm 0.00 in0.0 mm 0.00 in0.0 mm
04:54 PM 37.3°F2.9°C 23.1°F-4.9°C 56% 1.0 mph NW1.6 kmh NW 15.0 mph24.1 kmh 30.04 in1017.3 mb 0.00 in0.0 mm 0.00 in0.0 mm 0.00 in0.0 mm
04:59 PM 37.2°F2.9°C 22.5°F-5.3°C 55% 4.0 mph WNW6.4 kmh WNW 17.0 mph27.4 kmh 30.04 in1017.3 mb 0.00 in0.0 mm 0.00 in0.0 mm 0.00 in0.0 mm
05:04 PM 37.0°F2.8°C 22.8°F-5.1°C 56% 2.0 mph NNW3.2 kmh NNW 17.0 mph27.4 kmh 30.05 in1017.6 mb 0.00 in0.0 mm 0.00 in0.0 mm 0.00 in0.0 mm
05:09 PM 36.9°F2.7°C 23.1°F-4.9°C 57% 7.0 mph N11.3 kmh N 17.0 mph27.4 kmh 30.05 in1017.6 mb 0.00 in0.0 mm 0.00 in0.0 mm 0.00 in0.0 mm
05:14 PM 36.7°F2.6°C 23.3°F-4.8°C 58% 9.0 mph NW14.5 kmh NW 17.0 mph27.4 kmh 30.05 in1017.6 mb 0.00 in0.0 mm 0.00 in0.0 mm 0.00 in0.0 mm
05:19 PM 36.7°F2.6°C 23.7°F-4.6°C 59% 5.0 mph WNW8.0 kmh WNW 13.0 mph20.9 kmh 30.06 in1017.9 mb 0.00 in0.0 mm 0.00 in0.0 mm 0.00 in0.0 mm
05:24 PM 36.6°F2.6°C 23.6°F-4.7°C 59% Calm Calm 13.0 mph20.9 kmh 30.07 in1018.3 mb 0.00 in0.0 mm 0.00 in0.0 mm 0.00 in0.0 mm
05:29 PM 36.5°F2.5°C 24.0°F-4.4°C 60% 1.0 mph NW1.6 kmh NW 13.0 mph20.9 kmh 30.07 in1018.3 mb 0.00 in0.0 mm 0.00 in0.0 mm 0.00 in0.0 mm
05:34 PM 36.3°F2.4°C 23.8°F-4.6°C 60% 3.0 mph NW4.8 kmh NW 13.0 mph20.9 kmh 30.07 in1018.3 mb 0.00 in0.0 mm 0.00 in0.0 mm 0.00 in0.0 mm
05:39 PM 36.1°F2.3°C 23.6°F-4.7°C 60% 4.0 mph NW6.4 kmh NW 13.0 mph20.9 kmh 30.08 in1018.6 mb 0.00 in0.0 mm 0.00 in0.0 mm 0.00 in0.0 mm
05:44 PM 35.8°F2.1°C 22.1°F-5.5°C 57% 2.0 mph NNW3.2 kmh NNW 17.0 mph27.4 kmh 30.08 in1018.6 mb 0.00 in0.0 mm 0.00 in0.0 mm 0.00 in0.0 mm
05:49 PM 35.5°F1.9°C 21.4°F-5.9°C 56% 6.0 mph NW9.7 kmh NW 17.0 mph27.4 kmh 30.09 in1019.0 mb 0.00 in0.0 mm 0.00 in0.0 mm 0.00 in0.0 mm
05:54 PM 35.3°F1.8°C 21.2°F-6.0°C 56% 6.0 mph 9.7 kmh 17.0 mph27.4 kmh 30.09 in1019.0 mb 0.00 in0.0 mm 0.00 in0.0 mm 0.00 in0.0 mm
05:59 PM 35.2°F1.8°C 21.5°F-5.8°C 57% 13.0 mph NNE20.9 kmh NNE 17.0 mph27.4 kmh 30.09 in1019.0 mb 0.00 in0.0 mm 0.00 in0.0 mm 0.00 in0.0 mm
06:04 PM 35.1°F1.7°C 21.4°F-5.9°C 57% 14.0 mph N22.5 kmh N 16.0 mph25.7 kmh 30.09 in1019.0 mb 0.00 in0.0 mm 0.00 in0.0 mm 0.00 in0.0 mm
06:09 PM 34.9°F1.6°C 21.6°F-5.8°C 58% 2.0 mph NNW3.2 kmh NNW 18.0 mph29.0 kmh 30.09 in1019.0 mb 0.00 in0.0 mm 0.00 in0.0 mm 0.00 in0.0 mm
06:14 PM 34.8°F1.6°C 21.1°F-6.1°C 57% 2.0 mph NW3.2 kmh NW 18.0 mph29.0 kmh 30.10 in1019.3 mb 0.00 in0.0 mm 0.00 in0.0 mm 0.00 in0.0 mm
06:19 PM 34.6°F1.4°C 20.5°F-6.4°C 56% 7.0 mph NNW11.3 kmh NNW 19.0 mph30.6 kmh 30.10 in1019.3 mb 0.00 in0.0 mm 0.00 in0.0 mm 0.00 in0.0 mm
06:24 PM 34.5°F1.4°C 20.4°F-6.4°C 56% 6.0 mph NNW9.7 kmh NNW 19.0 mph30.6 kmh 30.11 in1019.6 mb 0.00 in0.0 mm 0.00 in0.0 mm 0.00 in0.0 mm
06:29 PM 34.4°F1.3°C 20.8°F-6.2°C 57% 6.0 mph NW9.7 kmh NW 19.0 mph30.6 kmh 30.11 in1019.6 mb 0.00 in0.0 mm 0.00 in0.0 mm 0.00 in0.0 mm
06:34 PM 34.2°F1.2°C 20.6°F-6.3°C 57% 5.0 mph NNW8.0 kmh NNW 19.0 mph30.6 kmh 30.11 in1019.6 mb 0.00 in0.0 mm 0.00 in0.0 mm 0.00 in0.0 mm
06:39 PM 34.1°F1.2°C 20.1°F-6.6°C 56% 15.0 mph NW24.1 kmh NW 15.0 mph24.1 kmh 30.11 in1019.6 mb 0.00 in0.0 mm 0.00 in0.0 mm 0.00 in0.0 mm
06:44 PM 33.9°F1.1°C 20.3°F-6.5°C 57% 6.0 mph NE9.7 kmh NE 15.0 mph24.1 kmh 30.12 in1020.0 mb 0.00 in0.0 mm 0.00 in0.0 mm 0.00 in0.0 mm
06:49 PM 33.7°F0.9°C 20.1°F-6.6°C 57% 12.0 mph N19.3 kmh N 15.0 mph24.1 kmh 30.12 in1020.0 mb 0.00 in0.0 mm 0.00 in0.0 mm 0.00 in0.0 mm
06:54 PM 33.6°F0.9°C 20.4°F-6.4°C 58% 11.0 mph N17.7 kmh N 15.0 mph24.1 kmh 30.13 in1020.3 mb 0.00 in0.0 mm 0.00 in0.0 mm 0.00 in0.0 mm
06:59 PM 33.4°F0.8°C 20.6°F-6.3°C 59% 5.0 mph NNW8.0 kmh NNW 15.0 mph24.1 kmh 30.13 in1020.3 mb 0.00 in0.0 mm 0.00 in0.0 mm 0.00 in0.0 mm
07:04 PM 33.3°F0.7°C 20.5°F-6.4°C 59% 5.0 mph NW8.0 kmh NW 15.0 mph24.1 kmh 30.13 in1020.3 mb 0.00 in0.0 mm 0.00 in0.0 mm 0.00 in0.0 mm
07:09 PM 33.2°F0.7°C 20.8°F-6.2°C 60% 2.0 mph NW3.2 kmh NW 14.0 mph22.5 kmh 30.14 in1020.7 mb 0.00 in0.0 mm 0.00 in0.0 mm 0.00 in0.0 mm
07:14 PM 33.2°F0.7°C 21.2°F-6.0°C 61% 2.0 mph WNW3.2 kmh WNW 14.0 mph22.5 kmh 30.14 in1020.7 mb 0.00 in0.0 mm 0.00 in0.0 mm 0.00 in0.0 mm
07:19 PM 33.1°F0.6°C 21.1°F-6.1°C 61% 3.0 mph NW4.8 kmh NW 14.0 mph22.5 kmh 30.14 in1020.7 mb 0.00 in0.0 mm 0.00 in0.0 mm 0.00 in0.0 mm
07:24 PM 33.0°F0.6°C 21.0°F-6.1°C 61% 4.0 mph NW6.4 kmh NW 14.0 mph22.5 kmh 30.15 in1021.0 mb 0.00 in0.0 mm 0.00 in0.0 mm 0.00 in0.0 mm
07:29 PM 32.9°F0.5°C 20.9°F-6.2°C 61% Calm Calm 12.0 mph19.3 kmh 30.15 in1021.0 mb 0.00 in0.0 mm 0.00 in0.0 mm 0.00 in0.0 mm
07:34 PM 32.8°F0.4°C 21.2°F-6.0°C 62% 5.0 mph N8.0 kmh N 12.0 mph19.3 kmh 30.15 in1021.0 mb 0.00 in0.0 mm 0.00 in0.0 mm 0.00 in0.0 mm
07:39 PM 32.6°F0.3°C 21.0°F-6.1°C 62% 5.0 mph NW8.0 kmh NW 8.0 mph12.9 kmh 30.15 in1021.0 mb 0.00 in0.0 mm 0.00 in0.0 mm 0.00 in0.0 mm
07:44 PM 32.6°F0.3°C 21.4°F-5.9°C 63% 3.0 mph NW4.8 kmh NW 8.0 mph12.9 kmh 30.16 in1021.3 mb 0.00 in0.0 mm 0.00 in0.0 mm 0.00 in0.0 mm
07:49 PM 32.5°F0.3°C 21.3°F-5.9°C 63% 1.0 mph NNW1.6 kmh NNW 9.0 mph14.5 kmh 30.16 in1021.3 mb 0.00 in0.0 mm 0.00 in0.0 mm 0.00 in0.0 mm
07:54 PM 32.4°F0.2°C 21.2°F-6.0°C 63% Calm Calm 11.0 mph17.7 kmh 30.16 in1021.3 mb 0.00 in0.0 mm 0.00 in0.0 mm 0.00 in0.0 mm
07:59 PM 32.4°F0.2°C 21.2°F-6.0°C 63% 4.0 mph NNW6.4 kmh NNW 11.0 mph17.7 kmh 30.16 in1021.3 mb 0.00 in0.0 mm 0.00 in0.0 mm 0.00 in0.0 mm
08:04 PM 32.3°F0.2°C 21.5°F-5.8°C 64% 2.0 mph NW3.2 kmh NW 11.0 mph17.7 kmh 30.17 in1021.7 mb 0.00 in0.0 mm 0.00 in0.0 mm 0.00 in0.0 mm
08:09 PM 32.3°F0.2°C 21.5°F-5.8°C 64% Calm Calm 11.0 mph17.7 kmh 30.16 in1021.3 mb 0.00 in0.0 mm 0.00 in0.0 mm 0.00 in0.0 mm
08:14 PM 32.3°F0.2°C 21.5°F-5.8°C 64% 1.0 mph NW1.6 kmh NW 12.0 mph19.3 kmh 30.17 in1021.7 mb 0.00 in0.0 mm 0.00 in0.0 mm 0.00 in0.0 mm
08:19 PM 32.1°F0.1°C 21.7°F-5.7°C 65% 1.0 mph NNW1.6 kmh NNW 12.0 mph19.3 kmh 30.17 in1021.7 mb 0.00 in0.0 mm 0.00 in0.0 mm 0.00 in0.0 mm
08:24 PM 32.1°F0.1°C 21.7°F-5.7°C 65% 2.0 mph NW3.2 kmh NW 13.0 mph20.9 kmh 30.18 in1022.0 mb 0.00 in0.0 mm 0.00 in0.0 mm 0.00 in0.0 mm
08:29 PM 32.0°F0.0°C 21.6°F-5.8°C 65% 2.0 mph NW3.2 kmh NW 13.0 mph20.9 kmh 30.18 in1022.0 mb 0.00 in0.0 mm 0.00 in0.0 mm 0.00 in0.0 mm
08:34 PM 32.0°F0.0°C 21.6°F-5.8°C 65% 3.0 mph NW4.8 kmh NW 13.0 mph20.9 kmh 30.19 in1022.4 mb 0.00 in0.0 mm 0.00 in0.0 mm 0.00 in0.0 mm
08:39 PM 31.9°F-0.1°C 21.9°F-5.6°C 66% 1.0 mph WNW1.6 kmh WNW 13.0 mph20.9 kmh 30.18 in1022.0 mb 0.00 in0.0 mm 0.00 in0.0 mm 0.00 in0.0 mm
08:44 PM 31.7°F-0.2°C 21.7°F-5.7°C 66% 3.0 mph NNW4.8 kmh NNW 11.0 mph17.7 kmh 30.19 in1022.4 mb 0.00 in0.0 mm 0.00 in0.0 mm 0.00 in0.0 mm
08:49 PM 31.6°F-0.2°C 21.2°F-6.0°C 65% 5.0 mph WNW8.0 kmh WNW 17.0 mph27.4 kmh 30.19 in1022.4 mb 0.00 in0.0 mm 0.00 in0.0 mm 0.00 in0.0 mm
08:54 PM 31.5°F-0.3°C 21.5°F-5.8°C 66% 2.0 mph NW3.2 kmh NW 17.0 mph27.4 kmh 30.19 in1022.4 mb 0.00 in0.0 mm 0.00 in0.0 mm 0.00 in0.0 mm
08:59 PM 31.4°F-0.3°C 21.0°F-6.1°C 65% 5.0 mph NNW8.0 kmh NNW 17.0 mph27.4 kmh 30.19 in1022.4 mb 0.00 in0.0 mm 0.00 in0.0 mm 0.00 in0.0 mm
09:04 PM 31.2°F-0.4°C 20.5°F-6.4°C 64% 4.0 mph NNW6.4 kmh NNW 17.0 mph27.4 kmh 30.20 in1022.7 mb 0.00 in0.0 mm 0.00 in0.0 mm 0.00 in0.0 mm
09:09 PM 31.1°F-0.5°C 20.4°F-6.4°C 64% 3.0 mph NW4.8 kmh NW 15.0 mph24.1 kmh 30.20 in1022.7 mb 0.00 in0.0 mm 0.00 in0.0 mm 0.00 in0.0 mm
09:14 PM 31.0°F-0.6°C 20.3°F-6.5°C 64% 2.0 mph NW3.2 kmh NW 15.0 mph24.1 kmh 30.20 in1022.7 mb 0.00 in0.0 mm 0.00 in0.0 mm 0.00 in0.0 mm
09:19 PM 31.0°F-0.6°C 20.3°F-6.5°C 64% 1.0 mph NNW1.6 kmh NNW 9.0 mph14.5 kmh 30.20 in1022.7 mb 0.00 in0.0 mm 0.00 in0.0 mm 0.00 in0.0 mm
09:24 PM 30.8°F-0.7°C 19.7°F-6.8°C 63% 2.0 mph NW3.2 kmh NW 11.0 mph17.7 kmh 30.20 in1022.7 mb 0.00 in0.0 mm 0.00 in0.0 mm 0.00 in0.0 mm
09:29 PM 30.8°F-0.7°C 19.7°F-6.8°C 63% 7.0 mph NW11.3 kmh NW 14.0 mph22.5 kmh 30.21 in1023.0 mb 0.00 in0.0 mm 0.00 in0.0 mm 0.00 in0.0 mm
09:34 PM 30.7°F-0.7°C 19.6°F-6.9°C 63% 4.0 mph NNW6.4 kmh NNW 14.0 mph22.5 kmh 30.21 in1023.0 mb 0.00 in0.0 mm 0.00 in0.0 mm 0.00 in0.0 mm
09:39 PM 30.6°F-0.8°C 19.2°F-7.1°C 62% 5.0 mph NNW8.0 kmh NNW 14.0 mph22.5 kmh 30.21 in1023.0 mb 0.00 in0.0 mm 0.00 in0.0 mm 0.00 in0.0 mm
09:44 PM 30.5°F-0.8°C 18.7°F-7.4°C 61% 5.0 mph NW8.0 kmh NW 14.0 mph22.5 kmh 30.21 in1023.0 mb 0.00 in0.0 mm 0.00 in0.0 mm 0.00 in0.0 mm
09:49 PM 30.5°F-0.8°C 18.3°F-7.6°C 60% 2.0 mph NW3.2 kmh NW 10.0 mph16.1 kmh 30.21 in1023.0 mb 0.00 in0.0 mm 0.00 in0.0 mm 0.00 in0.0 mm
09:54 PM 30.4°F-0.9°C 18.2°F-7.7°C 60% Calm Calm 10.0 mph16.1 kmh 30.21 in1023.0 mb 0.00 in0.0 mm 0.00 in0.0 mm 0.00 in0.0 mm
09:59 PM 30.3°F-0.9°C 17.7°F-7.9°C 59% 1.0 mph NW1.6 kmh NW 9.0 mph14.5 kmh 30.21 in1023.0 mb 0.00 in0.0 mm 0.00 in0.0 mm 0.00 in0.0 mm
10:04 PM 30.3°F-0.9°C 16.9°F-8.4°C 57% 5.0 mph NNW8.0 kmh NNW 9.0 mph14.5 kmh 30.21 in1023.0 mb 0.00 in0.0 mm 0.00 in0.0 mm 0.00 in0.0 mm
10:09 PM 30.3°F-0.9°C 16.1°F-8.8°C 55% 1.0 mph N1.6 kmh N 13.0 mph20.9 kmh 30.21 in1023.0 mb 0.00 in0.0 mm 0.00 in0.0 mm 0.00 in0.0 mm
10:14 PM 30.3°F-0.9°C 15.7°F-9.1°C 54% 2.0 mph NNW3.2 kmh NNW 14.0 mph22.5 kmh 30.22 in1023.4 mb 0.00 in0.0 mm 0.00 in0.0 mm 0.00 in0.0 mm
10:19 PM 30.2°F-1.0°C 15.6°F-9.1°C 54% 2.0 mph NNW3.2 kmh NNW 14.0 mph22.5 kmh 30.22 in1023.4 mb 0.00 in0.0 mm 0.00 in0.0 mm 0.00 in0.0 mm
10:24 PM 30.2°F-1.0°C 15.2°F-9.3°C 53% 2.0 mph NW3.2 kmh NW 14.0 mph22.5 kmh 30.23 in1023.7 mb 0.00 in0.0 mm 0.00 in0.0 mm 0.00 in0.0 mm
10:29 PM 30.1°F-1.1°C 15.5°F-9.2°C 54% 1.0 mph NW1.6 kmh NW 14.0 mph22.5 kmh 30.23 in1023.7 mb 0.00 in0.0 mm 0.00 in0.0 mm 0.00 in0.0 mm
10:34 PM 30.0°F-1.1°C 15.4°F-9.2°C 54% 1.0 mph NNW1.6 kmh NNW 12.0 mph19.3 kmh 30.23 in1023.7 mb 0.00 in0.0 mm 0.00 in0.0 mm 0.00 in0.0 mm
10:39 PM 29.8°F-1.2°C 15.2°F-9.3°C 54% 3.0 mph NNW4.8 kmh NNW 12.0 mph19.3 kmh 30.23 in1023.7 mb 0.00 in0.0 mm 0.00 in0.0 mm 0.00 in0.0 mm
10:44 PM 29.7°F-1.3°C 15.1°F-9.4°C 54% 4.0 mph NW6.4 kmh NW 12.0 mph19.3 kmh 30.23 in1023.7 mb 0.00 in0.0 mm 0.00 in0.0 mm 0.00 in0.0 mm
10:49 PM 29.7°F-1.3°C 15.1°F-9.4°C 54% 3.0 mph NNW4.8 kmh NNW 12.0 mph19.3 kmh 30.23 in1023.7 mb 0.00 in0.0 mm 0.00 in0.0 mm 0.00 in0.0 mm
10:54 PM 29.6°F-1.3°C 15.0°F-9.4°C 54% Calm Calm 10.0 mph16.1 kmh 30.23 in1023.7 mb 0.00 in0.0 mm 0.00 in0.0 mm 0.00 in0.0 mm
10:59 PM 29.5°F-1.4°C 14.9°F-9.5°C 54% 8.0 mph NW12.9 kmh NW 11.0 mph17.7 kmh 30.23 in1023.7 mb 0.00 in0.0 mm 0.00 in0.0 mm 0.00 in0.0 mm
11:04 PM 29.4°F-1.4°C 14.8°F-9.6°C 54% Calm Calm 11.0 mph17.7 kmh 30.23 in1023.7 mb 0.00 in0.0 mm 0.00 in0.0 mm 0.00 in0.0 mm
11:09 PM 29.4°F-1.4°C 14.8°F-9.6°C 54% 8.0 mph NNW12.9 kmh NNW 11.0 mph17.7 kmh 30.24 in1024.0 mb 0.00 in0.0 mm 0.00 in0.0 mm 0.00 in0.0 mm
11:14 PM 29.3°F-1.5°C 14.7°F-9.6°C 54% Calm Calm 11.0 mph17.7 kmh 30.24 in1024.0 mb 0.00 in0.0 mm 0.00 in0.0 mm 0.00 in0.0 mm
11:19 PM 29.2°F-1.6°C 14.6°F-9.7°C 54% 2.0 mph NNW3.2 kmh NNW 11.0 mph17.7 kmh 30.25 in1024.4 mb 0.00 in0.0 mm 0.00 in0.0 mm 0.00 in0.0 mm
11:24 PM 29.2°F-1.6°C 15.1°F-9.4°C 55% 6.0 mph NNW9.7 kmh NNW 11.0 mph17.7 kmh 30.25 in1024.4 mb 0.00 in0.0 mm 0.00 in0.0 mm 0.00 in0.0 mm
11:29 PM 29.1°F-1.6°C 14.6°F-9.7°C 54% 6.0 mph NW9.7 kmh NW 10.0 mph16.1 kmh 30.25 in1024.4 mb 0.00 in0.0 mm 0.00 in0.0 mm 0.00 in0.0 mm
11:34 PM 29.1°F-1.6°C 14.6°F-9.7°C 54% 5.0 mph NNW8.0 kmh NNW 10.0 mph16.1 kmh 30.25 in1024.4 mb 0.00 in0.0 mm 0.00 in0.0 mm 0.00 in0.0 mm
11:39 PM 28.9°F-1.7°C 14.4°F-9.8°C 54% Calm Calm 10.0 mph16.1 kmh 30.25 in1024.4 mb 0.00 in0.0 mm 0.00 in0.0 mm 0.00 in0.0 mm
11:44 PM 28.8°F-1.8°C 14.3°F-9.8°C 54% 4.0 mph NNW6.4 kmh NNW 10.0 mph16.1 kmh 30.25 in1024.4 mb 0.00 in0.0 mm 0.00 in0.0 mm 0.00 in0.0 mm
11:49 PM 28.8°F-1.8°C 14.7°F-9.6°C 55% Calm Calm 12.0 mph19.3 kmh 30.25 in1024.4 mb 0.00 in0.0 mm 0.00 in0.0 mm 0.00 in0.0 mm
11:54 PM 28.7°F-1.8°C 14.6°F-9.7°C 55% 5.0 mph NNW8.0 kmh NNW 12.0 mph19.3 kmh 30.25 in1024.4 mb 0.00 in0.0 mm 0.00 in0.0 mm 0.00 in0.0 mm
11:59 PM 28.7°F-1.8°C 14.2°F-9.9°C 54% 2.0 mph NW3.2 kmh NW 12.0 mph19.3 kmh 30.25 in1024.4 mb 0.00 in0.0 mm 0.00 in0.0 mm 0.00 in0.0 mm